createdAt,value
2017-01-16T00:00:35.700Z,-3.44
2017-01-16T00:01:35.692Z,-3.41
2017-01-16T00:02:36.100Z,-3.46
2017-01-16T00:03:35.684Z,-3.37
2017-01-16T00:04:36.095Z,-3.38
2017-01-16T00:05:35.276Z,-3.36
2017-01-16T00:06:35.676Z,-3.3
2017-01-16T00:07:35.672Z,-3.32
2017-01-16T00:08:36.080Z,-3.29
2017-01-16T00:09:35.666Z,-3.25
2017-01-16T00:10:36.076Z,-3.2
2017-01-16T00:11:36.060Z,-3.25
2017-01-16T00:12:35.648Z,-3.17
2017-01-16T00:13:35.644Z,-3.14
2017-01-16T00:14:35.632Z,-3.12
2017-01-16T00:15:35.628Z,-3.08
2017-01-16T00:16:35.632Z,-3.04
2017-01-16T00:17:35.624Z,-2.93
2017-01-16T00:18:36.036Z,-3.04
2017-01-16T00:19:36.028Z,-2.93
2017-01-16T00:20:35.620Z,-3.01
2017-01-16T00:21:36.016Z,-3.02
2017-01-16T00:22:36.020Z,-2.86
2017-01-16T00:23:35.604Z,-2.87
2017-01-16T00:24:35.592Z,-2.9
2017-01-16T00:25:35.596Z,-2.84
2017-01-16T00:26:35.988Z,-2.86
2017-01-16T00:27:35.588Z,-2.9
2017-01-16T00:28:35.576Z,-2.81
2017-01-16T00:29:35.580Z,-2.84
2017-01-16T00:30:35.572Z,-2.73
2017-01-16T00:31:35.564Z,-2.73
2017-01-16T00:32:35.568Z,-2.86
2017-01-16T00:33:35.968Z,-2.72
2017-01-16T00:34:35.561Z,-2.83
2017-01-16T00:35:35.964Z,-2.75
2017-01-16T00:36:35.948Z,-2.81
2017-01-16T00:37:35.956Z,-2.9
2017-01-16T00:38:35.948Z,-2.78
2017-01-16T00:39:35.941Z,-2.89
2017-01-16T00:40:35.528Z,-2.99
2017-01-16T00:41:35.520Z,-2.98
2017-01-16T00:42:35.528Z,-2.98
2017-01-16T00:43:35.520Z,-2.94
2017-01-16T00:44:35.508Z,-2.96
2017-01-16T00:45:35.912Z,-3.04
2017-01-16T00:46:35.504Z,-2.91
2017-01-16T00:47:35.916Z,-3.05
2017-01-16T00:48:35.492Z,-2.91
2017-01-16T00:49:35.480Z,-3.02
2017-01-16T00:50:35.480Z,-2.98
2017-01-16T00:51:35.484Z,-2.96
2017-01-16T00:52:35.060Z,-2.94
2017-01-16T00:53:35.884Z,-2.89
2017-01-16T00:54:35.468Z,-2.76
2017-01-16T00:55:35.892Z,-2.93
2017-01-16T00:56:35.868Z,-2.91
2017-01-16T00:57:35.860Z,-2.87
2017-01-16T00:58:35.451Z,-2.9
2017-01-16T00:59:35.452Z,-2.83
2017-01-16T01:00:35.852Z,-2.94
2017-01-16T01:01:35.432Z,-2.96
2017-01-16T01:02:35.845Z,-3.01
2017-01-16T01:03:35.672Z,-2.93
2017-01-16T01:04:35.416Z,-2.99
2017-01-16T01:05:35.824Z,-3.04
2017-01-16T01:06:35.412Z,-3.04
2017-01-16T01:07:35.416Z,-3.12
2017-01-16T01:08:35.408Z,-3.2
2017-01-16T01:09:35.816Z,-3.27
2017-01-16T01:10:35.404Z,-3.22
2017-01-16T01:11:35.802Z,-3.3
2017-01-16T01:12:34.996Z,-3.3
2017-01-16T01:13:34.976Z,-3.25
2017-01-16T01:14:35.376Z,-3.3
2017-01-16T01:15:35.376Z,-3.27
2017-01-16T01:16:35.780Z,-3.36
2017-01-16T01:17:35.368Z,-3.27
2017-01-16T01:18:35.356Z,-3.3
2017-01-16T01:19:35.776Z,-3.25
2017-01-16T01:20:35.352Z,-3.22
2017-01-16T01:21:35.352Z,-3.23
2017-01-16T01:22:35.344Z,-3.19
2017-01-16T01:23:35.336Z,-3.19
2017-01-16T01:24:35.340Z,-3.09
2017-01-16T01:25:35.729Z,-3.12
2017-01-16T01:26:35.733Z,-3.09
2017-01-16T01:27:35.736Z,-3.01
2017-01-16T01:28:35.324Z,-3.02
2017-01-16T01:29:35.320Z,-3.05
2017-01-16T01:30:35.305Z,-3.15
2017-01-16T01:31:35.724Z,-3.15
2017-01-16T01:32:35.721Z,-3.17
2017-01-16T01:33:34.884Z,-3.22
2017-01-16T01:34:35.705Z,-3.33
2017-01-16T01:35:35.697Z,-3.43
2017-01-16T01:36:35.696Z,-3.58
2017-01-16T01:37:35.281Z,-3.5
2017-01-16T01:38:35.684Z,-3.59
2017-01-16T01:39:35.684Z,-3.71
2017-01-16T01:40:35.272Z,-3.83
2017-01-16T01:41:35.256Z,-3.9
2017-01-16T01:42:35.260Z,-3.9
2017-01-16T01:43:35.260Z,-4.08
2017-01-16T01:44:35.241Z,-4.12
2017-01-16T01:45:35.657Z,-4.19
2017-01-16T01:46:35.233Z,-4.09
2017-01-16T01:47:35.653Z,-4.2
2017-01-16T01:48:35.645Z,-4.22
2017-01-16T01:49:35.641Z,-4.24
2017-01-16T01:50:35.220Z,-4.38
2017-01-16T01:51:34.808Z,-4.27
2017-01-16T01:52:35.218Z,-4.42
2017-01-16T01:53:35.217Z,-4.41
2017-01-16T01:54:35.621Z,-4.38
2017-01-16T01:55:35.612Z,-4.59
2017-01-16T01:56:35.197Z,-4.51
2017-01-16T01:57:35.185Z,-4.61
2017-01-16T01:58:35.193Z,-4.71
2017-01-16T01:59:35.601Z,-4.61
2017-01-16T02:00:35.613Z,-4.69
2017-01-16T02:01:35.585Z,-4.69
2017-01-16T02:02:35.573Z,-4.73
2017-01-16T02:03:35.157Z,-4.69
2017-01-16T02:04:35.165Z,-4.69
2017-01-16T02:05:35.161Z,-4.65
2017-01-16T02:06:35.149Z,-4.71
2017-01-16T02:07:35.153Z,-4.56
2017-01-16T02:08:35.149Z,-4.56
2017-01-16T02:09:35.137Z,-4.62
2017-01-16T02:10:35.131Z,-4.69
2017-01-16T02:11:35.125Z,-4.69
2017-01-16T02:12:35.126Z,-4.62
2017-01-16T02:13:35.525Z,-4.55
2017-01-16T02:14:34.705Z,-4.53
2017-01-16T02:15:35.115Z,-4.55
2017-01-16T02:16:35.521Z,-4.55
2017-01-16T02:17:35.517Z,-4.51
2017-01-16T02:18:35.521Z,-4.58
2017-01-16T02:19:35.089Z,-4.49
2017-01-16T02:20:35.493Z,-4.61
2017-01-16T02:21:35.085Z,-4.69
2017-01-16T02:22:35.493Z,-4.65
2017-01-16T02:23:35.077Z,-4.7
2017-01-16T02:24:35.073Z,-4.63
2017-01-16T02:25:35.063Z,-4.71
2017-01-16T02:26:35.465Z,-4.69
2017-01-16T02:27:35.062Z,-4.81
2017-01-16T02:28:35.053Z,-4.76
2017-01-16T02:29:35.461Z,-4.81
2017-01-16T02:30:35.453Z,-4.8
2017-01-16T02:31:35.041Z,-4.74
2017-01-16T02:32:34.623Z,-4.71
2017-01-16T02:33:35.031Z,-4.7
2017-01-16T02:34:35.446Z,-4.69
2017-01-16T02:35:35.025Z,-4.52
2017-01-16T02:36:35.429Z,-4.56
2017-01-16T02:37:34.598Z,-4.47
2017-01-16T02:38:35.014Z,-4.47
2017-01-16T02:39:35.029Z,-4.42
2017-01-16T02:40:34.586Z,-4.35
2017-01-16T02:41:34.998Z,-4.33
2017-01-16T02:42:34.989Z,-4.2
2017-01-16T02:43:34.994Z,-4.2
2017-01-16T02:44:35.398Z,-4.27
2017-01-16T02:45:35.382Z,-4.16
2017-01-16T02:46:35.382Z,-4.16
2017-01-16T02:47:34.962Z,-4.08
2017-01-16T02:48:34.554Z,-4.02
2017-01-16T02:49:34.550Z,-4.01
2017-01-16T02:50:35.370Z,-4.08
2017-01-16T02:51:35.370Z,-4.02
2017-01-16T02:52:34.962Z,-3.94
2017-01-16T02:53:35.350Z,-3.98
2017-01-16T02:54:34.974Z,-3.98
2017-01-16T02:55:34.517Z,-4.01
2017-01-16T02:56:35.330Z,-3.83
2017-01-16T02:57:34.926Z,-3.98
2017-01-16T02:58:34.914Z,-3.84
2017-01-16T02:59:34.922Z,-3.81
2017-01-16T03:00:35.322Z,-3.87
2017-01-16T03:01:35.319Z,-3.9
2017-01-16T03:02:35.310Z,-3.84
2017-01-16T03:03:34.902Z,-3.94
2017-01-16T03:04:34.887Z,-3.94
2017-01-16T03:05:35.308Z,-3.91
2017-01-16T03:06:34.878Z,-3.94
2017-01-16T03:07:34.886Z,-3.85
2017-01-16T03:08:35.278Z,-3.91
2017-01-16T03:09:34.874Z,-3.95
2017-01-16T03:10:34.863Z,-3.91
2017-01-16T03:11:34.455Z,-3.91
2017-01-16T03:12:35.259Z,-3.96
2017-01-16T03:13:34.851Z,-3.98
2017-01-16T03:14:35.407Z,-4.05
2017-01-16T03:15:34.839Z,-3.9
2017-01-16T03:16:35.251Z,-4.01
2017-01-16T03:17:35.243Z,-3.98
2017-01-16T03:18:34.831Z,-3.94
2017-01-16T03:19:34.443Z,-3.94
2017-01-16T03:20:35.239Z,-3.84
2017-01-16T03:21:35.231Z,-3.8
2017-01-16T03:22:35.235Z,-3.69
2017-01-16T03:23:34.807Z,-3.74
2017-01-16T03:24:35.211Z,-3.68
2017-01-16T03:25:34.847Z,-3.75
2017-01-16T03:26:34.799Z,-3.59
2017-01-16T03:27:35.232Z,-3.58
2017-01-16T03:28:35.199Z,-3.5
2017-01-16T03:29:35.192Z,-3.59
2017-01-16T03:30:35.188Z,-3.5
2017-01-16T03:31:35.183Z,-3.48
2017-01-16T03:32:35.171Z,-3.46
2017-01-16T03:33:34.764Z,-3.46
2017-01-16T03:34:35.176Z,-3.4
2017-01-16T03:35:35.164Z,-3.32
2017-01-16T03:36:34.748Z,-3.33
2017-01-16T03:37:35.148Z,-3.27
2017-01-16T03:38:35.152Z,-3.22
2017-01-16T03:39:35.140Z,-3.27
2017-01-16T03:40:34.736Z,-3.2
2017-01-16T03:41:35.136Z,-3.2
2017-01-16T03:42:35.164Z,-3.2
2017-01-16T03:43:34.304Z,-3.27
2017-01-16T03:44:34.292Z,-3.26
2017-01-16T03:45:35.124Z,-3.14
2017-01-16T03:46:35.121Z,-3.2
2017-01-16T03:47:34.705Z,-3.19
2017-01-16T03:48:34.693Z,-3.17
2017-01-16T03:49:35.109Z,-3.17
2017-01-16T03:50:35.097Z,-3.17
2017-01-16T03:51:34.677Z,-3.22
2017-01-16T03:52:35.085Z,-3.17
2017-01-16T03:53:34.673Z,-3.15
2017-01-16T03:54:34.669Z,-3.23
2017-01-16T03:55:35.065Z,-3.2
2017-01-16T03:56:34.665Z,-3.2
2017-01-16T03:57:34.653Z,-3.19
2017-01-16T03:58:34.653Z,-3.17
2017-01-16T03:59:35.057Z,-3.19
2017-01-16T04:00:35.045Z,-3.12
2017-01-16T04:01:35.046Z,-3.19
2017-01-16T04:02:34.217Z,-3.19
2017-01-16T04:03:35.030Z,-3.12
2017-01-16T04:04:35.030Z,-3.12
2017-01-16T04:05:34.617Z,-3.11
2017-01-16T04:06:34.606Z,-3.17
2017-01-16T04:07:35.050Z,-3.22
2017-01-16T04:08:34.598Z,-3.17
2017-01-16T04:09:35.018Z,-3.07
2017-01-16T04:10:34.598Z,-3.22
2017-01-16T04:11:34.594Z,-3.08
2017-01-16T04:12:34.998Z,-3.12
2017-01-16T04:13:34.582Z,-3.15
2017-01-16T04:14:34.574Z,-3.11
2017-01-16T04:15:34.566Z,-3.05
2017-01-16T04:16:34.574Z,-3.12
2017-01-16T04:17:34.978Z,-3.19
2017-01-16T04:18:34.564Z,-3.14
2017-01-16T04:19:34.994Z,-3.15
2017-01-16T04:20:34.547Z,-3.15
2017-01-16T04:21:34.542Z,-3.2
2017-01-16T04:22:34.126Z,-3.17
2017-01-16T04:23:34.538Z,-3.05
2017-01-16T04:24:34.530Z,-3.09
2017-01-16T04:25:34.535Z,-3.08
2017-01-16T04:26:34.115Z,-3.01
2017-01-16T04:27:34.527Z,-2.96
2017-01-16T04:28:34.930Z,-3.04
2017-01-16T04:29:34.919Z,-3.01
2017-01-16T04:30:34.503Z,-2.99
2017-01-16T04:31:34.915Z,-2.98
2017-01-16T04:32:34.899Z,-2.96
2017-01-16T04:33:34.491Z,-2.83
2017-01-16T04:34:34.487Z,-2.89
2017-01-16T04:35:34.483Z,-2.86
2017-01-16T04:36:34.895Z,-2.8
2017-01-16T04:37:34.883Z,-2.84
2017-01-16T04:38:34.463Z,-2.73
2017-01-16T04:39:34.055Z,-2.76
2017-01-16T04:40:34.459Z,-2.76
2017-01-16T04:41:34.871Z,-2.7
2017-01-16T04:42:34.455Z,-2.65
2017-01-16T04:43:34.863Z,-2.66
2017-01-16T04:44:34.447Z,-2.58
2017-01-16T04:45:34.448Z,-2.65
2017-01-16T04:46:34.844Z,-2.63
2017-01-16T04:47:34.427Z,-2.72
2017-01-16T04:48:34.423Z,-2.7
2017-01-16T04:49:34.832Z,-2.9
2017-01-16T04:50:34.832Z,-2.86
2017-01-16T04:51:34.831Z,-2.98
2017-01-16T04:52:34.003Z,-2.96
2017-01-16T04:53:34.000Z,-3.01
2017-01-16T04:54:34.816Z,-3.07
2017-01-16T04:55:34.808Z,-3.05
2017-01-16T04:56:34.808Z,-3.15
2017-01-16T04:57:34.800Z,-3.12
2017-01-16T04:58:34.380Z,-3.09
2017-01-16T04:59:34.792Z,-3.07
2017-01-16T05:00:34.376Z,-3.04
2017-01-16T05:01:34.372Z,-3.02
2017-01-16T05:02:34.364Z,-3.04
2017-01-16T05:03:34.769Z,-2.96
2017-01-16T05:04:34.764Z,-2.87
2017-01-16T05:05:34.760Z,-2.94
2017-01-16T05:06:34.750Z,-2.84
2017-01-16T05:07:33.936Z,-2.9
2017-01-16T05:08:34.337Z,-2.78
2017-01-16T05:09:34.748Z,-2.81
2017-01-16T05:10:34.745Z,-2.83
2017-01-16T05:11:34.736Z,-2.69
2017-01-16T05:12:33.905Z,-2.7
2017-01-16T05:13:34.725Z,-2.66
2017-01-16T05:14:34.717Z,-2.68
2017-01-16T05:15:34.305Z,-2.68
2017-01-16T05:16:34.749Z,-2.69
2017-01-16T05:17:34.297Z,-2.72
2017-01-16T05:18:34.713Z,-2.66
2017-01-16T05:19:34.693Z,-2.69
2017-01-16T05:20:34.693Z,-2.75
2017-01-16T05:21:34.697Z,-2.8
2017-01-16T05:22:34.273Z,-2.86
2017-01-16T05:23:34.685Z,-2.8
2017-01-16T05:24:34.677Z,-2.91
2017-01-16T05:25:34.273Z,-3.01
2017-01-16T05:26:34.675Z,-3.19
2017-01-16T05:27:34.253Z,-3.2
2017-01-16T05:28:34.653Z,-3.4
2017-01-16T05:29:34.686Z,-3.5
2017-01-16T05:30:34.245Z,-3.51
2017-01-16T05:31:34.233Z,-3.68
2017-01-16T05:32:34.226Z,-3.8
2017-01-16T05:33:33.813Z,-3.94
2017-01-16T05:34:34.634Z,-3.99
2017-01-16T05:35:34.633Z,-4.02
2017-01-16T05:36:34.210Z,-4.13
2017-01-16T05:37:34.213Z,-4.22
2017-01-16T05:38:34.614Z,-4.26
2017-01-16T05:39:34.614Z,-4.37
2017-01-16T05:40:34.198Z,-4.37
2017-01-16T05:41:34.602Z,-4.53
2017-01-16T05:42:34.606Z,-4.53
2017-01-16T05:43:34.178Z,-4.7
2017-01-16T05:44:34.590Z,-4.69
2017-01-16T05:45:34.582Z,-4.8
2017-01-16T05:46:34.167Z,-4.73
2017-01-16T05:47:34.578Z,-4.74
2017-01-16T05:48:33.750Z,-4.84
2017-01-16T05:49:34.162Z,-4.9
2017-01-16T05:50:34.554Z,-4.95
2017-01-16T05:51:34.146Z,-4.95
2017-01-16T05:52:34.562Z,-4.97
2017-01-16T05:53:34.134Z,-5.08
2017-01-16T05:54:34.134Z,-5
2017-01-16T05:55:34.538Z,-5.01
2017-01-16T05:56:34.539Z,-4.98
2017-01-16T05:57:34.534Z,-5
2017-01-16T05:58:34.111Z,-4.98
2017-01-16T05:59:34.531Z,-4.92
2017-01-16T06:00:34.114Z,-4.88
2017-01-16T06:01:34.098Z,-4.73
2017-01-16T06:02:34.519Z,-4.8
2017-01-16T06:03:34.095Z,-4.63
2017-01-16T06:04:34.091Z,-4.73
2017-01-16T06:05:34.495Z,-4.71
2017-01-16T06:06:34.491Z,-4.51
2017-01-16T06:07:34.079Z,-4.52
2017-01-16T06:08:34.483Z,-4.55
2017-01-16T06:09:34.475Z,-4.55
2017-01-16T06:10:34.067Z,-4.55
2017-01-16T06:11:34.467Z,-4.56
2017-01-16T06:12:34.055Z,-4.45
2017-01-16T06:13:34.051Z,-4.47
2017-01-16T06:14:34.043Z,-4.53
2017-01-16T06:15:34.039Z,-4.44
2017-01-16T06:16:34.039Z,-4.56
2017-01-16T06:17:34.447Z,-4.41
2017-01-16T06:18:34.031Z,-4.52
2017-01-16T06:19:34.019Z,-4.52
2017-01-16T06:20:34.424Z,-4.4
2017-01-16T06:21:34.433Z,-4.41
2017-01-16T06:22:34.007Z,-4.45
2017-01-16T06:23:34.011Z,-4.41
2017-01-16T06:24:34.007Z,-4.31
2017-01-16T06:25:33.583Z,-4.42
2017-01-16T06:26:34.423Z,-4.38
2017-01-16T06:27:34.395Z,-4.24
2017-01-16T06:28:33.979Z,-4.34
2017-01-16T06:29:33.567Z,-4.31
2017-01-16T06:30:33.968Z,-4.33
2017-01-16T06:31:34.384Z,-4.24
2017-01-16T06:32:33.956Z,-4.24
2017-01-16T06:33:33.956Z,-4.27
2017-01-16T06:34:34.364Z,-4.24
2017-01-16T06:35:33.952Z,-4.16
2017-01-16T06:36:34.364Z,-4.06
2017-01-16T06:37:34.348Z,-4.01
2017-01-16T06:38:33.936Z,-3.95
2017-01-16T06:39:34.340Z,-4.01
2017-01-16T06:40:33.929Z,-3.95
2017-01-16T06:41:33.928Z,-4.02
2017-01-16T06:42:33.924Z,-4.02
2017-01-16T06:43:33.920Z,-3.9
2017-01-16T06:44:34.352Z,-3.98
2017-01-16T06:45:33.492Z,-3.91
2017-01-16T06:46:33.908Z,-3.87
2017-01-16T06:47:33.892Z,-3.81
2017-01-16T06:48:33.476Z,-3.87
2017-01-16T06:49:34.300Z,-3.91
2017-01-16T06:50:34.300Z,-3.87
2017-01-16T06:51:34.296Z,-3.9
2017-01-16T06:52:33.868Z,-3.88
2017-01-16T06:53:33.872Z,-3.91
2017-01-16T06:54:33.864Z,-3.84
2017-01-16T06:55:34.272Z,-3.96
2017-01-16T06:56:34.264Z,-3.95
2017-01-16T06:57:33.862Z,-3.96
2017-01-16T06:58:33.848Z,-3.95
2017-01-16T06:59:33.844Z,-3.88
2017-01-16T07:00:33.840Z,-3.99
2017-01-16T07:01:33.416Z,-3.88
2017-01-16T07:02:33.828Z,-3.95
2017-01-16T07:03:33.824Z,-3.88
2017-01-16T07:04:33.820Z,-3.83
2017-01-16T07:05:34.228Z,-3.78
2017-01-16T07:06:33.812Z,-3.74
2017-01-16T07:07:33.796Z,-3.69
2017-01-16T07:08:34.208Z,-3.65
2017-01-16T07:09:34.208Z,-3.65
2017-01-16T07:10:34.204Z,-3.64
2017-01-16T07:11:33.792Z,-3.65
2017-01-16T07:12:33.376Z,-3.56
2017-01-16T07:13:34.188Z,-3.53
2017-01-16T07:14:33.368Z,-3.48
2017-01-16T07:15:33.764Z,-3.46
2017-01-16T07:16:34.176Z,-3.43
2017-01-16T07:17:33.759Z,-3.47
2017-01-16T07:18:34.172Z,-3.58
2017-01-16T07:19:34.176Z,-3.47
2017-01-16T07:20:33.779Z,-3.43
2017-01-16T07:21:34.151Z,-3.47
2017-01-16T07:22:33.743Z,-3.41
2017-01-16T07:23:34.143Z,-3.46
2017-01-16T07:24:33.731Z,-3.46
2017-01-16T07:25:33.727Z,-3.5
2017-01-16T07:26:34.135Z,-3.4
2017-01-16T07:27:34.123Z,-3.32
2017-01-16T07:28:34.151Z,-3.29
2017-01-16T07:29:34.111Z,-3.17
2017-01-16T07:30:33.695Z,-3.26
2017-01-16T07:31:33.691Z,-3.17
2017-01-16T07:32:34.093Z,-3.17
2017-01-16T07:33:33.687Z,-3.15
2017-01-16T07:34:33.687Z,-3.27
2017-01-16T07:35:33.679Z,-3.2
2017-01-16T07:36:33.679Z,-3.23
2017-01-16T07:37:34.079Z,-3.25
2017-01-16T07:38:33.659Z,-3.3
2017-01-16T07:39:34.075Z,-3.26
2017-01-16T07:40:34.059Z,-3.32
2017-01-16T07:41:33.655Z,-3.29
2017-01-16T07:42:33.643Z,-3.22
2017-01-16T07:43:33.235Z,-3.23
2017-01-16T07:44:33.647Z,-3.23
2017-01-16T07:45:33.638Z,-3.2
2017-01-16T07:46:33.623Z,-3.2
2017-01-16T07:47:33.619Z,-3.09
2017-01-16T07:48:34.031Z,-3.19
2017-01-16T07:49:34.023Z,-3.07
2017-01-16T07:50:34.019Z,-3.04
2017-01-16T07:51:33.195Z,-3.11
2017-01-16T07:52:33.599Z,-3.08
2017-01-16T07:53:34.007Z,-3.04
2017-01-16T07:54:33.591Z,-3.04
2017-01-16T07:55:33.999Z,-3.07
2017-01-16T07:56:33.167Z,-3.01
2017-01-16T07:57:33.987Z,-3.01
2017-01-16T07:58:33.575Z,-2.96
2017-01-16T07:59:33.983Z,-2.84
2017-01-16T08:00:33.979Z,-2.87
2017-01-16T08:01:33.967Z,-2.8
2017-01-16T08:02:33.551Z,-2.73
2017-01-16T08:03:33.963Z,-2.73
2017-01-16T08:04:33.955Z,-2.7
2017-01-16T08:05:33.547Z,-2.73
2017-01-16T08:06:33.951Z,-2.73
2017-01-16T08:07:33.950Z,-2.9
2017-01-16T08:08:33.531Z,-2.8
2017-01-16T08:09:33.531Z,-2.81
2017-01-16T08:10:33.114Z,-2.87
2017-01-16T08:11:33.930Z,-2.9
2017-01-16T08:12:33.510Z,-2.98
2017-01-16T08:13:33.502Z,-2.98
2017-01-16T08:14:33.498Z,-2.96
2017-01-16T08:15:33.506Z,-3.04
2017-01-16T08:16:33.903Z,-3.05
2017-01-16T08:17:33.898Z,-3.04
2017-01-16T08:18:33.482Z,-3.05
2017-01-16T08:19:33.890Z,-3.04
2017-01-16T08:20:33.889Z,-3.02
2017-01-16T08:21:33.882Z,-2.89
2017-01-16T08:22:33.054Z,-2.87
2017-01-16T08:23:33.461Z,-2.83
2017-01-16T08:24:33.874Z,-2.89
2017-01-16T08:25:33.042Z,-2.87
2017-01-16T08:26:33.450Z,-2.84
2017-01-16T08:27:33.858Z,-2.84
2017-01-16T08:28:33.442Z,-2.84
2017-01-16T08:29:33.854Z,-2.78
2017-01-16T08:30:33.017Z,-2.76
2017-01-16T08:31:33.842Z,-2.72
2017-01-16T08:32:33.426Z,-2.73
2017-01-16T08:33:33.834Z,-2.7
2017-01-16T08:34:33.830Z,-2.58
2017-01-16T08:35:33.837Z,-2.47
2017-01-16T08:36:33.822Z,-2.34
2017-01-16T08:37:33.418Z,-2.29
2017-01-16T08:38:33.394Z,-2.26
2017-01-16T08:39:33.394Z,-2.23
2017-01-16T08:40:33.798Z,-2.23
2017-01-16T08:41:33.386Z,-2.1
2017-01-16T08:42:33.798Z,-2.02
2017-01-16T08:43:33.378Z,-1.86
2017-01-16T08:44:33.377Z,-1.87
2017-01-16T08:45:32.962Z,-1.72
2017-01-16T08:46:33.778Z,-1.68
2017-01-16T08:47:33.766Z,-1.68
2017-01-16T08:48:33.774Z,-1.57
2017-01-16T08:49:33.350Z,-1.51
2017-01-16T08:50:33.350Z,-1.4
2017-01-16T08:51:33.754Z,-1.33
2017-01-16T08:52:33.339Z,-1.15
2017-01-16T08:53:33.754Z,-0.91
2017-01-16T08:54:33.334Z,-0.75
2017-01-16T08:55:33.330Z,-0.7
2017-01-16T08:56:33.330Z,-0.44
2017-01-16T08:57:33.327Z,-0.26
2017-01-16T08:58:33.327Z,-0.17
2017-01-16T08:59:33.727Z,0
2017-01-16T09:00:33.319Z,0.02
2017-01-16T09:01:33.712Z,0.05
2017-01-16T09:02:33.299Z,0.08
2017-01-16T09:03:33.299Z,0.11
2017-01-16T09:04:33.700Z,0.08
2017-01-16T09:05:33.711Z,0.13
2017-01-16T09:06:33.287Z,0.05
2017-01-16T09:07:33.696Z,-0.05
2017-01-16T09:08:33.692Z,0.02
2017-01-16T09:09:33.276Z,-0.02
2017-01-16T09:10:33.688Z,0.09
2017-01-16T09:11:33.268Z,0.19
2017-01-16T09:12:33.265Z,0.37
2017-01-16T09:13:33.256Z,0.64
2017-01-16T09:14:33.672Z,0.92
2017-01-16T09:15:33.665Z,1.25
2017-01-16T09:16:33.261Z,1.56
2017-01-16T09:17:33.662Z,1.82
2017-01-16T09:18:33.660Z,2.08
2017-01-16T09:19:33.233Z,2.51
2017-01-16T09:20:33.233Z,2.52
2017-01-16T09:21:33.237Z,2.69
2017-01-16T09:22:33.237Z,2.73
2017-01-16T09:23:33.637Z,2.88
2017-01-16T09:24:33.633Z,3.31
2017-01-16T09:25:33.213Z,3.84
2017-01-16T09:26:32.806Z,4.39
2017-01-16T09:27:33.217Z,4.9
2017-01-16T09:28:33.618Z,5.56
2017-01-16T09:29:33.617Z,5.83
2017-01-16T09:30:33.201Z,6.09
2017-01-16T09:31:33.614Z,6.05
2017-01-16T09:32:33.610Z,5.98
2017-01-16T09:33:33.606Z,5.72
2017-01-16T09:34:33.190Z,5.69
2017-01-16T09:35:33.186Z,5.61
2017-01-16T09:36:33.598Z,5.59
2017-01-16T09:37:33.183Z,5.52
2017-01-16T09:38:33.175Z,5.38
2017-01-16T09:39:33.171Z,5.01
2017-01-16T09:40:33.579Z,4.45
2017-01-16T09:41:58.835Z,3.71
2017-01-16T09:42:33.583Z,3.24
2017-01-16T09:43:33.564Z,2.68
2017-01-16T09:44:33.568Z,2.36
2017-01-16T09:45:33.156Z,1.86
2017-01-16T09:46:33.148Z,1.67
2017-01-16T09:47:33.152Z,1.4
2017-01-16T09:48:33.144Z,1.16
2017-01-16T09:49:33.548Z,0.89
2017-01-16T09:50:33.549Z,0.76
2017-01-16T09:51:33.141Z,0.51
2017-01-16T09:52:33.545Z,0.4
2017-01-16T09:53:33.549Z,0.3
2017-01-16T09:54:33.537Z,0.18
2017-01-16T09:55:33.533Z,-0.03
2017-01-16T09:56:33.121Z,-0.06
2017-01-16T09:57:33.529Z,-0.1
2017-01-16T09:58:33.119Z,-0.2
2017-01-16T09:59:33.113Z,-0.36
2017-01-16T10:00:33.106Z,-0.33
2017-01-16T10:01:33.765Z,-0.35
2017-01-16T10:02:33.098Z,-0.41
2017-01-16T10:03:33.098Z,-0.42
2017-01-16T10:04:33.508Z,-0.41
2017-01-16T10:05:33.094Z,-0.3
2017-01-16T10:06:33.506Z,-0.46
2017-01-16T10:07:33.082Z,-0.41
2017-01-16T10:08:33.498Z,-0.36
2017-01-16T10:09:33.495Z,-0.35
2017-01-16T10:10:33.479Z,-0.41
2017-01-16T10:11:33.479Z,-0.39
2017-01-16T10:12:32.667Z,-0.39
2017-01-16T10:13:33.075Z,-0.35
2017-01-16T10:14:33.071Z,-0.27
2017-01-16T10:15:33.476Z,-0.17
2017-01-16T10:16:33.063Z,-0.07
2017-01-16T10:17:33.059Z,-0.03
2017-01-16T10:18:33.469Z,0.09
2017-01-16T10:19:33.460Z,0.12
2017-01-16T10:20:33.048Z,0.11
2017-01-16T10:21:33.052Z,0.2
2017-01-16T10:22:33.452Z,0.19
2017-01-16T10:23:33.444Z,0.15
2017-01-16T10:24:33.036Z,0.13
2017-01-16T10:25:33.444Z,0.16
2017-01-16T10:26:33.448Z,-0.06
2017-01-16T10:27:33.028Z,-0.05
2017-01-16T10:28:33.433Z,-0.09
2017-01-16T10:29:33.429Z,0
2017-01-16T10:30:32.616Z,0.05
2017-01-16T10:31:33.425Z,0.02
2017-01-16T10:32:32.605Z,0.08
2017-01-16T10:33:33.424Z,0.11
2017-01-16T10:34:33.013Z,0.18
2017-01-16T10:35:32.597Z,0.29
2017-01-16T10:36:33.409Z,0.31
2017-01-16T10:37:32.993Z,0.49
2017-01-16T10:38:33.406Z,0.59
2017-01-16T10:39:32.989Z,0.73
2017-01-16T10:40:32.993Z,0.89
2017-01-16T10:41:32.993Z,1.12
2017-01-16T10:42:33.390Z,1.31
2017-01-16T10:43:33.389Z,1.57
2017-01-16T10:44:33.389Z,1.7
2017-01-16T10:45:32.977Z,2.03
2017-01-16T10:46:33.386Z,2.25
2017-01-16T10:47:32.966Z,2.47
2017-01-16T10:48:33.386Z,2.62
2017-01-16T10:49:32.966Z,2.69
2017-01-16T10:50:32.970Z,2.76
2017-01-16T10:51:33.370Z,3.05
2017-01-16T10:52:33.370Z,3.05
2017-01-16T10:53:32.951Z,3.19
2017-01-16T10:54:33.366Z,3.11
2017-01-16T10:55:32.954Z,2.98
2017-01-16T10:56:32.955Z,2.76
2017-01-16T10:57:33.351Z,2.69
2017-01-16T10:58:33.391Z,2.61
2017-01-16T10:59:32.939Z,2.52
2017-01-16T11:00:32.947Z,2.5
2017-01-16T11:01:33.375Z,2.52
2017-01-16T11:02:33.347Z,2.37
2017-01-16T11:03:33.347Z,2.18
2017-01-16T11:04:33.335Z,2.19
2017-01-16T11:05:33.348Z,2.15
2017-01-16T11:06:32.934Z,2.1
2017-01-16T11:07:32.926Z,2.05
2017-01-16T11:08:32.918Z,2.03
2017-01-16T11:09:32.515Z,1.89
2017-01-16T11:10:32.927Z,1.81
2017-01-16T11:11:32.919Z,1.81
2017-01-16T11:12:32.919Z,1.79
2017-01-16T11:13:33.319Z,1.82
2017-01-16T11:14:33.322Z,1.85
2017-01-16T11:15:33.326Z,1.95
2017-01-16T11:16:32.902Z,1.95
2017-01-16T11:17:33.311Z,1.89
2017-01-16T11:18:32.899Z,2.04
2017-01-16T11:19:32.899Z,2.04
2017-01-16T11:20:33.302Z,2.12
2017-01-16T11:21:32.891Z,2.01
2017-01-16T11:22:32.895Z,2
2017-01-16T11:23:33.294Z,2.15
2017-01-16T11:24:32.890Z,2.19
2017-01-16T11:25:33.302Z,2.21
2017-01-16T11:26:32.883Z,2.26
2017-01-16T11:27:32.886Z,2.33
2017-01-16T11:28:33.290Z,2.5
2017-01-16T11:29:33.290Z,2.55
2017-01-16T11:30:32.866Z,2.52
2017-01-16T11:31:33.278Z,2.55
2017-01-16T11:32:33.275Z,2.79
2017-01-16T11:33:33.275Z,2.83
2017-01-16T11:34:33.274Z,3.15
2017-01-16T11:35:33.270Z,3.26
2017-01-16T11:36:33.274Z,3.29
2017-01-16T11:37:33.266Z,3.33
2017-01-16T11:38:33.262Z,3.26
2017-01-16T11:39:33.266Z,3.24
2017-01-16T11:40:32.853Z,3.19
2017-01-16T11:41:33.266Z,3.19
2017-01-16T11:42:33.262Z,3.09
2017-01-16T11:43:32.426Z,2.9
2017-01-16T11:44:32.838Z,2.46
2017-01-16T11:45:32.842Z,2.14
2017-01-16T11:46:32.986Z,1.98
2017-01-16T11:47:33.246Z,1.64
2017-01-16T11:48:33.242Z,1.53
2017-01-16T11:49:33.238Z,1.43
2017-01-16T11:50:33.238Z,1.39
2017-01-16T11:51:32.828Z,1.39
2017-01-16T11:52:33.234Z,1.28
2017-01-16T11:53:33.237Z,1.21
2017-01-16T11:54:33.222Z,1.14
2017-01-16T11:55:33.229Z,1.18
2017-01-16T11:56:32.805Z,1.2
2017-01-16T11:57:32.809Z,1.3
2017-01-16T11:58:33.225Z,1.45
2017-01-16T11:59:33.217Z,1.71
2017-01-16T12:00:33.213Z,1.84
2017-01-16T12:01:33.201Z,1.95
2017-01-16T12:02:33.213Z,1.92
2017-01-16T12:03:33.209Z,2.07
2017-01-16T12:04:33.209Z,2.22
2017-01-16T12:05:32.793Z,2.16
2017-01-16T12:06:33.209Z,2.32
2017-01-16T12:07:32.793Z,2.3
2017-01-16T12:08:33.193Z,2.39
2017-01-16T12:09:33.197Z,2.46
2017-01-16T12:10:33.196Z,2.4
2017-01-16T12:11:33.185Z,2.33
2017-01-16T12:12:32.360Z,2.25
2017-01-16T12:13:32.776Z,2.08
2017-01-16T12:14:32.772Z,1.88
2017-01-16T12:15:33.180Z,1.68
2017-01-16T12:16:32.764Z,1.58
2017-01-16T12:17:32.767Z,1.52
2017-01-16T12:18:32.355Z,1.45
2017-01-16T12:19:33.175Z,1.4
2017-01-16T12:20:32.759Z,1.38
2017-01-16T12:21:32.339Z,1.18
2017-01-16T12:22:32.759Z,1.09
2017-01-16T12:23:32.343Z,1
2017-01-16T12:24:32.755Z,0.77
2017-01-16T12:25:32.750Z,0.71
2017-01-16T12:26:32.330Z,0.68
2017-01-16T12:27:32.330Z,0.64
2017-01-16T12:28:32.734Z,0.47
2017-01-16T12:29:32.326Z,0.51
2017-01-16T12:30:32.738Z,0.56
2017-01-16T12:31:33.146Z,0.58
2017-01-16T12:32:32.734Z,0.56
2017-01-16T12:33:33.141Z,0.48
2017-01-16T12:34:33.141Z,0.64
2017-01-16T12:35:33.139Z,0.74
2017-01-16T12:36:33.137Z,0.84
2017-01-16T12:37:33.133Z,1.04
2017-01-16T12:38:32.725Z,1.13
2017-01-16T12:39:33.125Z,1.32
2017-01-16T12:40:33.125Z,1.48
2017-01-16T12:41:33.113Z,1.49
2017-01-16T12:42:32.705Z,1.49
2017-01-16T12:43:32.301Z,1.52
2017-01-16T12:44:33.112Z,1.52
2017-01-16T12:45:32.704Z,1.5
2017-01-16T12:46:33.109Z,1.53
2017-01-16T12:47:33.108Z,1.63
2017-01-16T12:48:32.692Z,1.64
2017-01-16T12:49:33.132Z,1.49
2017-01-16T12:50:32.276Z,1.42
2017-01-16T12:51:33.348Z,1.31
2017-01-16T12:52:32.668Z,1.16
2017-01-16T12:53:33.104Z,1.12
2017-01-16T12:54:32.676Z,1.07
2017-01-16T12:55:32.680Z,0.96
2017-01-16T12:56:33.080Z,1.13
2017-01-16T12:57:33.091Z,1.14
2017-01-16T12:58:33.080Z,1.13
2017-01-16T12:59:32.671Z,1.22
2017-01-16T13:00:33.079Z,1.21
2017-01-16T13:01:33.068Z,1.28
2017-01-16T13:02:33.071Z,1.31
2017-01-16T13:03:33.064Z,1.39